»·PEaware :: N1983V F70-KCRQ

N1983V :: F70-KCRQ

FLIGHT INFORMATION

Flight Status: Arrived
Operator: Privately registered:
United States
More flights under this callsign
Pilot: Douglas W B. (4049)
Aircraft: CESSNA 172 SKYHAWK
(C172)
More flights by this aircraft type
Origin: F70 French Valley
United States
Destination: KCRQ McClellan-Palomar
United States
More flights between these airports :: More routes between these airports
Route: + / HOMLY
File this flight plan on PilotEdge
Remarks:
Altitude:
(Current/Filed)
6,000ft
Speed:
(Current/Filed)
105kts
Departed: 14-Sep-18 11:33 AM
Arrived: 14-Sep-18 12:06 PM
Distance/Time
Traveled:
28nm/0:33
Distance/Time
To Go:
Arrived

Flight Plot

Page will automatically refresh every two minutes.

Flight plan parsing failed; only flown route is shown


Map Options




Map Legend


Flown Route
Filed Route
Departure Airport
Arrival Airport
Navaid (VOR, NDB)
Fix

Horizontal Profiles

Position Reports

Time Latitude Longitude Heading Altitude Ground
Speed
14-Sep-18 11:03 33.572201 -117.130087 102 1354ft 0kts
14-Sep-18 11:04 33.572201 -117.130087 102 1354ft 0kts
14-Sep-18 11:05 33.572201 -117.130087 102 1354ft 0kts
14-Sep-18 11:06 33.572201 -117.130087 102 1354ft 0kts
14-Sep-18 11:07 33.572201 -117.130087 102 1354ft 0kts
14-Sep-18 11:08 33.572201 -117.130087 102 1354ft 0kts
14-Sep-18 11:09 33.572201 -117.130087 102 1354ft 0kts
14-Sep-18 11:10 33.572201 -117.130087 102 1354ft 0kts
14-Sep-18 11:11 33.572201 -117.130087 102 1354ft 0kts
14-Sep-18 11:12 33.572201 -117.130087 102 1354ft 0kts
14-Sep-18 11:13 33.572201 -117.130087 102 1354ft 0kts
14-Sep-18 11:14 33.572201 -117.130087 102 1354ft 0kts
14-Sep-18 11:15 33.572201 -117.130087 102 1354ft 0kts
14-Sep-18 11:16 33.572201 -117.130087 102 1354ft 0kts
14-Sep-18 11:17 33.572201 -117.130087 102 1354ft 0kts
14-Sep-18 11:18 33.572201 -117.130087 102 1354ft 0kts
14-Sep-18 11:19 33.572201 -117.130087 102 1354ft 0kts
14-Sep-18 11:20 33.572201 -117.130087 102 1354ft 0kts
14-Sep-18 11:21 33.572201 -117.130087 102 1354ft 0kts
14-Sep-18 11:22 33.572201 -117.130087 102 1354ft 0kts
14-Sep-18 11:23 33.572201 -117.130087 102 1354ft 0kts
14-Sep-18 11:24 33.572201 -117.130087 102 1354ft 0kts
14-Sep-18 11:25 33.571164 -117.130074 191 1354ft 12kts
14-Sep-18 11:26 33.568080 -117.130897 193 1354ft 9kts
14-Sep-18 11:27 33.566328 -117.131200 123 1354ft 0kts
14-Sep-18 11:28 33.566328 -117.131200 123 1354ft 0kts
14-Sep-18 11:29 33.566328 -117.131200 123 1354ft 0kts
14-Sep-18 11:30 33.566328 -117.131200 123 1354ft 0kts
14-Sep-18 11:31 33.566328 -117.131200 123 1354ft 0kts
14-Sep-18 11:32 33.566328 -117.131200 123 1354ft 0kts
14-Sep-18 11:33 33.566328 -117.131200 123 1354ft 0kts
14-Sep-18 11:34 33.566261 -117.130796 80 1354ft 4kts
14-Sep-18 11:35 33.578834 -117.126828 16 1602ft 90kts
14-Sep-18 11:36 33.604174 -117.119374 3 2427ft 97kts
14-Sep-18 11:37 33.630417 -117.119608 1 3279ft 93kts
14-Sep-18 11:38 33.654468 -117.129138 335 4032ft 98kts
14-Sep-18 11:39 33.682759 -117.143866 340 3972ft 119kts
14-Sep-18 11:40 33.711158 -117.157562 301 4523ft 104kts
14-Sep-18 11:41 33.692724 -117.172973 187 5218ft 105kts
14-Sep-18 11:42 33.664520 -117.174056 182 5935ft 99kts
14-Sep-18 11:43 33.633385 -117.171236 180 5958ft 124kts
14-Sep-18 11:44 33.600230 -117.170347 175 6020ft 118kts
14-Sep-18 11:45 33.566560 -117.168870 179 5859ft 128kts
14-Sep-18 11:46 33.533671 -117.165706 180 5946ft 116kts
14-Sep-18 11:47 33.501834 -117.162812 180 5961ft 115kts
14-Sep-18 11:48 33.469843 -117.160159 168 5909ft 114kts
14-Sep-18 11:49 33.439124 -117.153050 176 5908ft 110kts
14-Sep-18 11:50 33.408926 -117.149351 174 5987ft 103kts
14-Sep-18 11:51 33.380067 -117.139958 168 5935ft 114kts
14-Sep-18 11:52 33.351515 -117.128778 167 5408ft 101kts
14-Sep-18 11:53 33.326116 -117.118779 163 4714ft 95kts
14-Sep-18 11:54 33.302103 -117.109304 165 4145ft 87kts
14-Sep-18 11:55 33.279310 -117.100623 167 3587ft 92kts
14-Sep-18 11:56 33.252940 -117.091691 172 3541ft 99kts
14-Sep-18 11:57 33.227386 -117.081581 160 3621ft 94kts
14-Sep-18 11:58 33.200751 -117.073341 191 3459ft 103kts
14-Sep-18 11:59 33.174843 -117.083006 196 3514ft 87kts
14-Sep-18 12:00 33.159905 -117.101673 248 3482ft 80kts
14-Sep-18 12:01 33.153246 -117.126345 258 2974ft 80kts
14-Sep-18 12:02 33.149982 -117.151964 258 2569ft 81kts
14-Sep-18 12:03 33.144652 -117.178296 261 2053ft 79kts
14-Sep-18 12:04 33.141221 -117.203349 258 1617ft 72kts
14-Sep-18 12:05 33.137099 -117.227087 257 1202ft 68kts
14-Sep-18 12:06 33.133809 -117.247217 255 809ft 65kts
14-Sep-18 12:07 33.130043 -117.268913 257 432ft 70kts
14-Sep-18 12:08 33.128808 -117.279975 304 335ft 9kts
14-Sep-18 12:09 33.129013 -117.280671 271 335ft 7kts

Navigation Log

Ident Type
Flight plan parsing failed, navigation log unavailable